sensor_id;sensor_type;location;lat;lon;timestamp;P1;durP1;ratioP1;P2;durP2;ratioP2
47129;SDS011;69689;48.122;11.542;2023-05-07T05:04:53;0.00;;;0.00;;
47129;SDS011;69689;48.122;11.542;2023-05-07T05:07:18;0.00;;;0.00;;
47129;SDS011;69689;48.122;11.542;2023-05-07T05:09:44;0.00;;;0.00;;
47129;SDS011;69689;48.122;11.542;2023-05-07T05:12:09;0.00;;;0.00;;
47129;SDS011;69689;48.122;11.542;2023-05-07T05:14:35;0.00;;;0.00;;
47129;SDS011;69689;48.122;11.542;2023-05-07T05:17:00;0.00;;;0.00;;
47129;SDS011;69689;48.122;11.542;2023-05-07T05:19:25;0.00;;;0.00;;
47129;SDS011;69689;48.122;11.542;2023-05-07T05:21:51;0.00;;;0.00;;
47129;SDS011;69689;48.122;11.542;2023-05-07T05:24:16;0.00;;;0.00;;
47129;SDS011;69689;48.122;11.542;2023-05-07T05:26:41;0.00;;;0.00;;
47129;SDS011;69689;48.122;11.542;2023-05-07T05:29:07;0.00;;;0.00;;
47129;SDS011;69689;48.122;11.542;2023-05-07T05:31:32;0.00;;;0.00;;
47129;SDS011;69689;48.122;11.542;2023-05-07T05:33:58;0.00;;;0.00;;
47129;SDS011;69689;48.122;11.542;2023-05-07T05:36:23;0.00;;;0.00;;
47129;SDS011;69689;48.122;11.542;2023-05-07T05:38:49;0.00;;;0.00;;
47129;SDS011;69689;48.122;11.542;2023-05-07T05:41:14;0.00;;;0.00;;
47129;SDS011;69689;48.122;11.542;2023-05-07T05:43:40;0.00;;;0.00;;
47129;SDS011;69689;48.122;11.542;2023-05-07T05:46:05;0.00;;;0.00;;
47129;SDS011;69689;48.122;11.542;2023-05-07T05:48:31;0.00;;;0.00;;
47129;SDS011;69689;48.122;11.542;2023-05-07T05:50:56;0.00;;;0.00;;
47129;SDS011;69689;48.122;11.542;2023-05-07T05:53:21;0.00;;;0.00;;
47129;SDS011;69689;48.122;11.542;2023-05-07T05:55:47;0.00;;;0.00;;
47129;SDS011;69689;48.122;11.542;2023-05-07T05:58:12;0.00;;;0.00;;
47129;SDS011;69689;48.122;11.542;2023-05-07T06:00:37;0.00;;;0.00;;
47129;SDS011;69689;48.122;11.542;2023-05-07T06:03:03;0.00;;;0.00;;
47129;SDS011;69689;48.122;11.542;2023-05-07T06:07:53;0.20;;;0.20;;
47129;SDS011;69689;48.122;11.542;2023-05-07T06:12:44;0.00;;;0.00;;
47129;SDS011;69689;48.122;11.542;2023-05-07T06:17:34;0.00;;;0.00;;
47129;SDS011;69689;48.122;11.542;2023-05-07T06:22:25;0.15;;;0.15;;
47129;SDS011;69689;48.122;11.542;2023-05-07T06:27:16;0.00;;;0.00;;
47129;SDS011;69689;48.122;11.542;2023-05-07T06:32:07;0.00;;;0.00;;
47129;SDS011;69689;48.122;11.542;2023-05-07T06:34:33;0.00;;;0.00;;
47129;SDS011;69689;48.122;11.542;2023-05-07T06:39:23;0.00;;;0.00;;
47129;SDS011;69689;48.122;11.542;2023-05-07T06:41:49;0.00;;;0.00;;
47129;SDS011;69689;48.122;11.542;2023-05-07T06:46:40;0.00;;;0.00;;
47129;SDS011;69689;48.122;11.542;2023-05-07T06:49:06;0.00;;;0.00;;
47129;SDS011;69689;48.122;11.542;2023-05-07T06:51:31;0.00;;;0.00;;
47129;SDS011;69689;48.122;11.542;2023-05-07T06:53:56;0.00;;;0.00;;
47129;SDS011;69689;48.122;11.542;2023-05-07T06:56:21;0.00;;;0.00;;
47129;SDS011;69689;48.122;11.542;2023-05-07T06:58:47;0.00;;;0.00;;
47129;SDS011;69689;48.122;11.542;2023-05-07T07:01:13;0.00;;;0.00;;
47129;SDS011;69689;48.122;11.542;2023-05-07T07:03:38;0.00;;;0.00;;
47129;SDS011;69689;48.122;11.542;2023-05-07T07:06:03;0.00;;;0.00;;
47129;SDS011;69689;48.122;11.542;2023-05-07T07:08:29;0.00;;;0.00;;
47129;SDS011;69689;48.122;11.542;2023-05-07T07:10:54;0.00;;;0.00;;
47129;SDS011;69689;48.122;11.542;2023-05-07T07:13:19;0.00;;;0.00;;
47129;SDS011;69689;48.122;11.542;2023-05-07T07:15:45;0.00;;;0.00;;
47129;SDS011;69689;48.122;11.542;2023-05-07T07:18:11;0.00;;;0.00;;
47129;SDS011;69689;48.122;11.542;2023-05-07T07:20:36;0.00;;;0.00;;
47129;SDS011;69689;48.122;11.542;2023-05-07T07:23:01;0.00;;;0.00;;
47129;SDS011;69689;48.122;11.542;2023-05-07T07:25:26;0.00;;;0.00;;
47129;SDS011;69689;48.122;11.542;2023-05-07T07:27:52;0.00;;;0.00;;
47129;SDS011;69689;48.122;11.542;2023-05-07T07:30:17;0.00;;;0.00;;
47129;SDS011;69689;48.122;11.542;2023-05-07T07:32:43;0.00;;;0.00;;
47129;SDS011;69689;48.122;11.542;2023-05-07T07:35:08;0.00;;;0.00;;
47129;SDS011;69689;48.122;11.542;2023-05-07T07:37:33;0.00;;;0.00;;
47129;SDS011;69689;48.122;11.542;2023-05-07T07:39:59;0.00;;;0.00;;
47129;SDS011;69689;48.122;11.542;2023-05-07T07:42:24;0.00;;;0.00;;
47129;SDS011;69689;48.122;11.542;2023-05-07T07:44:50;0.00;;;0.00;;
47129;SDS011;69689;48.122;11.542;2023-05-07T07:47:15;0.00;;;0.00;;
47129;SDS011;69689;48.122;11.542;2023-05-07T07:49:40;0.00;;;0.00;;
47129;SDS011;69689;48.122;11.542;2023-05-07T07:52:06;0.00;;;0.00;;
47129;SDS011;69689;48.122;11.542;2023-05-07T07:54:31;0.00;;;0.00;;
47129;SDS011;69689;48.122;11.542;2023-05-07T07:56:57;0.00;;;0.00;;
47129;SDS011;69689;48.122;11.542;2023-05-07T07:59:22;0.00;;;0.00;;
47129;SDS011;69689;48.122;11.542;2023-05-07T08:01:48;0.00;;;0.00;;
47129;SDS011;69689;48.122;11.542;2023-05-07T08:04:15;0.00;;;0.00;;
47129;SDS011;69689;48.122;11.542;2023-05-07T08:06:40;0.00;;;0.00;;
47129;SDS011;69689;48.122;11.542;2023-05-07T08:09:05;0.00;;;0.00;;
47129;SDS011;69689;48.122;11.542;2023-05-07T08:11:31;0.00;;;0.00;;
47129;SDS011;69689;48.122;11.542;2023-05-07T08:13:56;0.00;;;0.00;;
47129;SDS011;69689;48.122;11.542;2023-05-07T08:16:21;0.00;;;0.00;;
47129;SDS011;69689;48.122;11.542;2023-05-07T08:18:47;0.00;;;0.00;;
47129;SDS011;69689;48.122;11.542;2023-05-07T08:21:12;0.00;;;0.00;;
47129;SDS011;69689;48.122;11.542;2023-05-07T08:23:37;0.00;;;0.00;;
47129;SDS011;69689;48.122;11.542;2023-05-07T08:26:03;0.00;;;0.00;;
47129;SDS011;69689;48.122;11.542;2023-05-07T08:28:28;0.05;;;0.05;;
47129;SDS011;69689;48.122;11.542;2023-05-07T08:30:53;0.00;;;0.00;;
47129;SDS011;69689;48.122;11.542;2023-05-07T08:33:19;0.00;;;0.00;;
47129;SDS011;69689;48.122;11.542;2023-05-07T08:35:44;0.00;;;0.00;;
47129;SDS011;69689;48.122;11.542;2023-05-07T08:38:10;0.10;;;0.10;;
47129;SDS011;69689;48.122;11.542;2023-05-07T08:40:37;0.00;;;0.00;;
47129;SDS011;69689;48.122;11.542;2023-05-07T08:43:04;0.00;;;0.00;;
47129;SDS011;69689;48.122;11.542;2023-05-07T08:45:30;0.13;;;0.13;;
47129;SDS011;69689;48.122;11.542;2023-05-07T08:47:58;0.00;;;0.00;;
47129;SDS011;69689;48.122;11.542;2023-05-07T08:50:24;0.00;;;0.00;;
47129;SDS011;69689;48.122;11.542;2023-05-07T08:52:49;0.00;;;0.00;;
47129;SDS011;69689;48.122;11.542;2023-05-07T08:55:15;0.00;;;0.00;;
47129;SDS011;69689;48.122;11.542;2023-05-07T08:57:40;0.00;;;0.00;;
47129;SDS011;69689;48.122;11.542;2023-05-07T09:00:06;0.00;;;0.00;;
47129;SDS011;69689;48.122;11.542;2023-05-07T09:02:32;0.00;;;0.00;;
47129;SDS011;69689;48.122;11.542;2023-05-07T09:04:58;0.00;;;0.00;;
47129;SDS011;69689;48.122;11.542;2023-05-07T09:07:23;0.00;;;0.00;;
47129;SDS011;69689;48.122;11.542;2023-05-07T09:09:48;0.00;;;0.00;;
47129;SDS011;69689;48.122;11.542;2023-05-07T09:12:14;0.00;;;0.00;;
47129;SDS011;69689;48.122;11.542;2023-05-07T09:14:39;0.00;;;0.00;;
47129;SDS011;69689;48.122;11.542;2023-05-07T09:17:04;0.00;;;0.00;;
47129;SDS011;69689;48.122;11.542;2023-05-07T09:19:30;0.08;;;0.08;;
47129;SDS011;69689;48.122;11.542;2023-05-07T09:21:59;0.20;;;0.20;;
47129;SDS011;69689;48.122;11.542;2023-05-07T09:24:29;0.28;;;0.28;;
47129;SDS011;69689;48.122;11.542;2023-05-07T09:26:58;0.63;;;0.63;;
47129;SDS011;69689;48.122;11.542;2023-05-07T09:29:25;0.93;;;0.93;;
47129;SDS011;69689;48.122;11.542;2023-05-07T09:31:50;1.20;;;1.20;;
47129;SDS011;69689;48.122;11.542;2023-05-07T09:34:16;2.33;;;2.33;;
47129;SDS011;69689;48.122;11.542;2023-05-07T09:36:41;5.00;;;4.90;;
47129;SDS011;69689;48.122;11.542;2023-05-07T09:39:07;7.60;;;7.43;;
47129;SDS011;69689;48.122;11.542;2023-05-07T09:41:32;9.23;;;8.95;;
47129;SDS011;69689;48.122;11.542;2023-05-07T09:43:58;15.13;;;14.73;;
47129;SDS011;69689;48.122;11.542;2023-05-07T09:46:30;19.67;;;19.10;;
47129;SDS011;69689;48.122;11.542;2023-05-07T09:48:59;24.50;;;23.80;;
47129;SDS011;69689;48.122;11.542;2023-05-07T09:51:30;35.40;;;34.38;;
47129;SDS011;69689;48.122;11.542;2023-05-07T09:54:11;49.83;;;48.40;;
47129;SDS011;69689;48.122;11.542;2023-05-07T09:56:36;60.22;;;58.53;;
47129;SDS011;69689;48.122;11.542;2023-05-07T09:59:06;52.55;;;51.05;;
47129;SDS011;69689;48.122;11.542;2023-05-07T10:01:32;33.63;;;32.63;;
47129;SDS011;69689;48.122;11.542;2023-05-07T10:03:58;39.30;;;38.17;;
47129;SDS011;69689;48.122;11.542;2023-05-07T10:06:24;45.22;;;43.92;;
47129;SDS011;69689;48.122;11.542;2023-05-07T10:08:50;48.17;;;46.78;;
47129;SDS011;69689;48.122;11.542;2023-05-07T10:11:16;40.70;;;39.50;;
47129;SDS011;69689;48.122;11.542;2023-05-07T10:13:42;52.13;;;50.65;;
47129;SDS011;69689;48.122;11.542;2023-05-07T10:16:08;44.63;;;43.33;;
47129;SDS011;69689;48.122;11.542;2023-05-07T10:18:33;44.90;;;43.60;;
47129;SDS011;69689;48.122;11.542;2023-05-07T10:21:02;43.20;;;41.90;;
47129;SDS011;69689;48.122;11.542;2023-05-07T10:23:30;27.95;;;27.15;;
47129;SDS011;69689;48.122;11.542;2023-05-07T10:25:56;34.42;;;33.40;;
47129;SDS011;69689;48.122;11.542;2023-05-07T10:28:22;26.58;;;25.80;;
47129;SDS011;69689;48.122;11.542;2023-05-07T10:33:31;12.20;;;11.90;;
47129;SDS011;69689;48.122;11.542;2023-05-07T10:35:58;22.05;;;21.45;;
47129;SDS011;69689;48.122;11.542;2023-05-07T10:38:25;31.73;;;30.80;;
47129;SDS011;69689;48.122;11.542;2023-05-07T10:40:52;31.60;;;30.70;;
47129;SDS011;69689;48.122;11.542;2023-05-07T10:43:17;45.72;;;44.40;;
47129;SDS011;69689;48.122;11.542;2023-05-07T10:45:42;53.45;;;51.90;;
47129;SDS011;69689;48.122;11.542;2023-05-07T10:50:35;102.35;;;99.53;;
47129;SDS011;69689;48.122;11.542;2023-05-07T10:55:41;150.18;;;146.32;;
47129;SDS011;69689;48.122;11.542;2023-05-07T10:58:23;120.45;;;117.20;;
47129;SDS011;69689;48.122;11.542;2023-05-07T11:00:56;105.78;;;102.90;;
47129;SDS011;69689;48.122;11.542;2023-05-07T11:03:22;91.47;;;88.95;;
47129;SDS011;69689;48.122;11.542;2023-05-07T11:05:48;85.30;;;82.95;;
47129;SDS011;69689;48.122;11.542;2023-05-07T11:08:52;75.25;;;73.15;;
47129;SDS011;69689;48.122;11.542;2023-05-07T11:11:19;58.33;;;56.63;;
47129;SDS011;69689;48.122;11.542;2023-05-07T11:13:45;43.70;;;42.40;;
47129;SDS011;69689;48.122;11.542;2023-05-07T11:16:18;45.17;;;43.85;;
47129;SDS011;69689;48.122;11.542;2023-05-07T11:18:48;55.13;;;53.53;;
47129;SDS011;69689;48.122;11.542;2023-05-07T11:24:19;86.57;;;84.15;;
47129;SDS011;69689;48.122;11.542;2023-05-07T11:26:50;113.28;;;110.22;;
47129;SDS011;69689;48.122;11.542;2023-05-07T11:29:16;137.82;;;134.25;;
47129;SDS011;69689;48.122;11.542;2023-05-07T11:31:43;170.73;;;166.40;;
47129;SDS011;69689;48.122;11.542;2023-05-07T11:34:08;172.15;;;167.77;;
47129;SDS011;69689;48.122;11.542;2023-05-07T11:36:34;215.65;;;210.43;;
47129;SDS011;69689;48.122;11.542;2023-05-07T11:39:00;233.63;;;228.00;;
47129;SDS011;69689;48.122;11.542;2023-05-07T11:41:35;222.90;;;217.50;;
47129;SDS011;69689;48.122;11.542;2023-05-07T11:44:04;144.93;;;141.15;;
47129;SDS011;69689;48.122;11.542;2023-05-07T11:46:30;136.10;;;132.55;;
47129;SDS011;69689;48.122;11.542;2023-05-07T11:48:56;132.55;;;129.07;;
47129;SDS011;69689;48.122;11.542;2023-05-07T11:51:22;118.75;;;115.55;;
47129;SDS011;69689;48.122;11.542;2023-05-07T11:53:49;151.15;;;147.27;;
47129;SDS011;69689;48.122;11.542;2023-05-07T11:56:15;148.32;;;144.50;;
47129;SDS011;69689;48.122;11.542;2023-05-07T11:58:42;179.07;;;174.60;;
47129;SDS011;69689;48.122;11.542;2023-05-07T12:01:09;183.23;;;178.63;;
47129;SDS011;69689;48.122;11.542;2023-05-07T12:03:36;210.05;;;204.90;;
47129;SDS011;69689;48.122;11.542;2023-05-07T12:06:07;206.80;;;201.73;;
47129;SDS011;69689;48.122;11.542;2023-05-07T12:08:35;186.27;;;181.63;;
47129;SDS011;69689;48.122;11.542;2023-05-07T12:11:01;204.93;;;199.93;;
47129;SDS011;69689;48.122;11.542;2023-05-07T12:13:26;208.90;;;203.77;;
47129;SDS011;69689;48.122;11.542;2023-05-07T12:15:52;172.43;;;168.13;;
47129;SDS011;69689;48.122;11.542;2023-05-07T12:18:18;100.55;;;97.75;;
47129;SDS011;69689;48.122;11.542;2023-05-07T12:20:45;67.38;;;65.45;;
47129;SDS011;69689;48.122;11.542;2023-05-07T12:23:10;44.78;;;43.47;;
47129;SDS011;69689;48.122;11.542;2023-05-07T12:25:39;38.25;;;37.15;;
47129;SDS011;69689;48.122;11.542;2023-05-07T12:28:12;46.28;;;44.92;;
47129;SDS011;69689;48.122;11.542;2023-05-07T12:30:38;43.13;;;41.88;;
47129;SDS011;69689;48.122;11.542;2023-05-07T12:33:04;41.63;;;40.40;;
47129;SDS011;69689;48.122;11.542;2023-05-07T12:35:36;32.55;;;31.55;;
47129;SDS011;69689;48.122;11.542;2023-05-07T12:38:04;33.13;;;32.15;;
47129;SDS011;69689;48.122;11.542;2023-05-07T12:40:38;21.58;;;20.95;;
47129;SDS011;69689;48.122;11.542;2023-05-07T12:43:03;28.58;;;27.75;;
47129;SDS011;69689;48.122;11.542;2023-05-07T12:45:29;23.33;;;22.63;;
47129;SDS011;69689;48.122;11.542;2023-05-07T12:47:54;16.23;;;15.75;;
47129;SDS011;69689;48.122;11.542;2023-05-07T12:50:20;16.50;;;16.00;;
47129;SDS011;69689;48.122;11.542;2023-05-07T12:52:48;32.58;;;31.63;;
47129;SDS011;69689;48.122;11.542;2023-05-07T12:55:14;37.90;;;36.80;;
47129;SDS011;69689;48.122;11.542;2023-05-07T12:57:41;45.53;;;44.22;;
47129;SDS011;69689;48.122;11.542;2023-05-07T13:00:08;58.80;;;57.10;;
47129;SDS011;69689;48.122;11.542;2023-05-07T13:02:34;65.57;;;63.67;;
47129;SDS011;69689;48.122;11.542;2023-05-07T13:05:02;87.90;;;85.47;;
47129;SDS011;69689;48.122;11.542;2023-05-07T13:07:28;87.88;;;85.43;;
47129;SDS011;69689;48.122;11.542;2023-05-07T13:09:53;78.43;;;76.25;;
47129;SDS011;69689;48.122;11.542;2023-05-07T13:12:18;67.17;;;65.27;;
47129;SDS011;69689;48.122;11.542;2023-05-07T13:14:44;59.33;;;57.60;;
47129;SDS011;69689;48.122;11.542;2023-05-07T13:17:09;52.40;;;50.88;;
47129;SDS011;69689;48.122;11.542;2023-05-07T13:19:34;58.55;;;56.83;;
47129;SDS011;69689;48.122;11.542;2023-05-07T13:22:02;67.22;;;65.30;;
47129;SDS011;69689;48.122;11.542;2023-05-07T13:24:27;68.87;;;66.90;;
47129;SDS011;69689;48.122;11.542;2023-05-07T13:26:53;92.05;;;89.50;;
47129;SDS011;69689;48.122;11.542;2023-05-07T13:29:18;109.78;;;106.80;;
47129;SDS011;69689;48.122;11.542;2023-05-07T13:31:43;114.70;;;111.60;;
47129;SDS011;69689;48.122;11.542;2023-05-07T13:34:09;130.93;;;127.43;;
47129;SDS011;69689;48.122;11.542;2023-05-07T13:36:34;152.73;;;148.75;;
47129;SDS011;69689;48.122;11.542;2023-05-07T13:39:02;172.70;;;168.35;;
47129;SDS011;69689;48.122;11.542;2023-05-07T13:41:28;175.95;;;171.50;;
47129;SDS011;69689;48.122;11.542;2023-05-07T13:43:53;202.23;;;197.27;;
47129;SDS011;69689;48.122;11.542;2023-05-07T13:46:19;218.20;;;212.83;;
47129;SDS011;69689;48.122;11.542;2023-05-07T13:48:44;248.40;;;242.43;;
47129;SDS011;69689;48.122;11.542;2023-05-07T13:51:09;282.70;;;276.08;;
47129;SDS011;69689;48.122;11.542;2023-05-07T13:53:35;325.80;;;318.40;;
47129;SDS011;69689;48.122;11.542;2023-05-07T13:56:01;315.77;;;308.50;;
47129;SDS011;69689;48.122;11.542;2023-05-07T13:58:26;324.38;;;316.92;;
47129;SDS011;69689;48.122;11.542;2023-05-07T14:00:51;317.10;;;309.83;;
47129;SDS011;69689;48.122;11.542;2023-05-07T14:03:17;322.02;;;314.70;;
47129;SDS011;69689;48.122;11.542;2023-05-07T14:05:44;290.23;;;283.42;;
47129;SDS011;69689;48.122;11.542;2023-05-07T14:08:09;238.23;;;232.47;;
47129;SDS011;69689;48.122;11.542;2023-05-07T14:10:35;191.55;;;186.77;;
47129;SDS011;69689;48.122;11.542;2023-05-07T14:13:01;125.80;;;122.47;;
47129;SDS011;69689;48.122;11.542;2023-05-07T14:15:26;99.50;;;96.78;;
47129;SDS011;69689;48.122;11.542;2023-05-07T14:17:52;42.42;;;41.22;;
47129;SDS011;69689;48.122;11.542;2023-05-07T14:20:17;19.10;;;18.58;;
47129;SDS011;69689;48.122;11.542;2023-05-07T14:22:42;11.27;;;10.97;;
47129;SDS011;69689;48.122;11.542;2023-05-07T14:25:08;6.40;;;6.27;;
47129;SDS011;69689;48.122;11.542;2023-05-07T14:27:34;4.97;;;4.88;;
47129;SDS011;69689;48.122;11.542;2023-05-07T14:30:00;4.72;;;4.63;;
47129;SDS011;69689;48.122;11.542;2023-05-07T14:32:25;3.58;;;3.47;;
47129;SDS011;69689;48.122;11.542;2023-05-07T14:34:50;4.53;;;4.43;;
47129;SDS011;69689;48.122;11.542;2023-05-07T14:37:15;3.20;;;3.17;;
47129;SDS011;69689;48.122;11.542;2023-05-07T14:39:41;3.27;;;3.23;;
47129;SDS011;69689;48.122;11.542;2023-05-07T14:42:06;6.57;;;6.43;;
47129;SDS011;69689;48.122;11.542;2023-05-07T14:44:33;7.00;;;6.80;;
47129;SDS011;69689;48.122;11.542;2023-05-07T14:46:59;5.82;;;5.72;;
47129;SDS011;69689;48.122;11.542;2023-05-07T14:49:25;3.78;;;3.67;;
47129;SDS011;69689;48.122;11.542;2023-05-07T14:51:50;1.80;;;1.80;;
47129;SDS011;69689;48.122;11.542;2023-05-07T14:54:15;1.30;;;1.30;;
47129;SDS011;69689;48.122;11.542;2023-05-07T14:56:41;0.40;;;0.40;;
47129;SDS011;69689;48.122;11.542;2023-05-07T14:59:07;0.13;;;0.13;;
47129;SDS011;69689;48.122;11.542;2023-05-07T15:01:36;0.15;;;0.15;;
47129;SDS011;69689;48.122;11.542;2023-05-07T15:04:05;0.35;;;0.35;;
47129;SDS011;69689;48.122;11.542;2023-05-07T15:06:31;0.00;;;0.00;;
47129;SDS011;69689;48.122;11.542;2023-05-07T15:08:58;0.10;;;0.10;;
47129;SDS011;69689;48.122;11.542;2023-05-07T15:11:23;0.28;;;0.10;;
47129;SDS011;69689;48.122;11.542;2023-05-07T15:13:49;0.00;;;0.00;;
47129;SDS011;69689;48.122;11.542;2023-05-07T15:16:14;0.03;;;0.03;;
47129;SDS011;69689;48.122;11.542;2023-05-07T15:18:39;0.00;;;0.00;;
47129;SDS011;69689;48.122;11.542;2023-05-07T15:21:05;0.00;;;0.00;;
47129;SDS011;69689;48.122;11.542;2023-05-07T15:23:30;0.00;;;0.00;;
47129;SDS011;69689;48.122;11.542;2023-05-07T15:25:56;0.00;;;0.00;;
47129;SDS011;69689;48.122;11.542;2023-05-07T15:28:21;0.00;;;0.00;;
47129;SDS011;69689;48.122;11.542;2023-05-07T15:30:46;0.00;;;0.00;;
47129;SDS011;69689;48.122;11.542;2023-05-07T15:33:12;0.00;;;0.00;;
47129;SDS011;69689;48.122;11.542;2023-05-07T15:35:37;0.67;;;0.07;;
47129;SDS011;69689;48.122;11.542;2023-05-07T15:38:02;0.00;;;0.00;;
47129;SDS011;69689;48.122;11.542;2023-05-07T15:40:28;0.00;;;0.00;;
47129;SDS011;69689;48.122;11.542;2023-05-07T15:42:54;0.00;;;0.00;;
47129;SDS011;69689;48.122;11.542;2023-05-07T15:45:20;0.00;;;0.00;;
47129;SDS011;69689;48.122;11.542;2023-05-07T15:47:46;0.00;;;0.00;;
47129;SDS011;69689;48.122;11.542;2023-05-07T15:50:11;0.00;;;0.00;;
47129;SDS011;69689;48.122;11.542;2023-05-07T15:52:36;0.00;;;0.00;;
47129;SDS011;69689;48.122;11.542;2023-05-07T15:55:03;0.00;;;0.00;;
47129;SDS011;69689;48.122;11.542;2023-05-07T15:57:30;0.00;;;0.00;;
47129;SDS011;69689;48.122;11.542;2023-05-07T15:59:56;0.00;;;0.00;;
47129;SDS011;69689;48.122;11.542;2023-05-07T16:02:21;0.00;;;0.00;;
47129;SDS011;69689;48.122;11.542;2023-05-07T16:04:47;0.00;;;0.00;;
47129;SDS011;69689;48.122;11.542;2023-05-07T16:07:12;0.00;;;0.00;;
47129;SDS011;69689;48.122;11.542;2023-05-07T16:09:38;0.00;;;0.00;;
47129;SDS011;69689;48.122;11.542;2023-05-07T16:12:03;0.00;;;0.00;;
47129;SDS011;69689;48.122;11.542;2023-05-07T16:14:29;0.10;;;0.10;;
47129;SDS011;69689;48.122;11.542;2023-05-07T16:16:54;0.10;;;0.10;;
47129;SDS011;69689;48.122;11.542;2023-05-07T16:19:19;0.00;;;0.00;;
47129;SDS011;69689;48.122;11.542;2023-05-07T16:21:45;0.00;;;0.00;;
47129;SDS011;69689;48.122;11.542;2023-05-07T16:24:11;0.00;;;0.00;;
47129;SDS011;69689;48.122;11.542;2023-05-07T16:26:36;0.00;;;0.00;;
47129;SDS011;69689;48.122;11.542;2023-05-07T16:29:02;0.00;;;0.00;;
47129;SDS011;69689;48.122;11.542;2023-05-07T16:31:28;0.00;;;0.00;;
47129;SDS011;69689;48.122;11.542;2023-05-07T16:33:54;0.00;;;0.00;;
47129;SDS011;69689;48.122;11.542;2023-05-07T16:36:19;0.00;;;0.00;;
47129;SDS011;69689;48.122;11.542;2023-05-07T16:38:45;0.00;;;0.00;;
47129;SDS011;69689;48.122;11.542;2023-05-07T16:41:10;0.10;;;0.10;;
47129;SDS011;69689;48.122;11.542;2023-05-07T16:43:37;0.13;;;0.13;;
47129;SDS011;69689;48.122;11.542;2023-05-07T16:46:02;0.00;;;0.00;;
47129;SDS011;69689;48.122;11.542;2023-05-07T16:48:27;0.32;;;0.00;;
47129;SDS011;69689;48.122;11.542;2023-05-07T16:50:53;0.20;;;0.00;;
47129;SDS011;69689;48.122;11.542;2023-05-07T16:53:18;0.00;;;0.00;;
47129;SDS011;69689;48.122;11.542;2023-05-07T16:55:44;0.00;;;0.00;;
47129;SDS011;69689;48.122;11.542;2023-05-07T16:58:10;0.00;;;0.00;;
47129;SDS011;69689;48.122;11.542;2023-05-07T17:00:35;0.00;;;0.00;;
47129;SDS011;69689;48.122;11.542;2023-05-07T17:03:01;0.00;;;0.00;;
47129;SDS011;69689;48.122;11.542;2023-05-07T17:05:27;0.00;;;0.00;;
47129;SDS011;69689;48.122;11.542;2023-05-07T17:07:52;0.00;;;0.00;;
47129;SDS011;69689;48.122;11.542;2023-05-07T17:10:19;0.00;;;0.00;;
47129;SDS011;69689;48.122;11.542;2023-05-07T17:12:44;0.00;;;0.00;;
47129;SDS011;69689;48.122;11.542;2023-05-07T17:15:10;0.00;;;0.00;;
47129;SDS011;69689;48.122;11.542;2023-05-07T17:17:35;0.00;;;0.00;;
47129;SDS011;69689;48.122;11.542;2023-05-07T17:20:01;0.00;;;0.00;;
47129;SDS011;69689;48.122;11.542;2023-05-07T17:22:26;0.00;;;0.00;;
47129;SDS011;69689;48.122;11.542;2023-05-07T17:24:52;0.00;;;0.00;;
47129;SDS011;69689;48.122;11.542;2023-05-07T17:27:17;0.00;;;0.00;;
47129;SDS011;69689;48.122;11.542;2023-05-07T17:29:43;0.00;;;0.00;;
47129;SDS011;69689;48.122;11.542;2023-05-07T17:32:08;0.00;;;0.00;;
47129;SDS011;69689;48.122;11.542;2023-05-07T17:34:33;0.00;;;0.00;;
47129;SDS011;69689;48.122;11.542;2023-05-07T17:36:59;0.00;;;0.00;;
47129;SDS011;69689;48.122;11.542;2023-05-07T17:39:24;0.03;;;0.03;;
47129;SDS011;69689;48.122;11.542;2023-05-07T17:41:49;0.63;;;0.13;;
47129;SDS011;69689;48.122;11.542;2023-05-07T17:44:15;0.00;;;0.00;;
47129;SDS011;69689;48.122;11.542;2023-05-07T17:46:41;0.00;;;0.00;;
47129;SDS011;69689;48.122;11.542;2023-05-07T17:49:06;0.00;;;0.00;;
47129;SDS011;69689;48.122;11.542;2023-05-07T17:51:32;0.00;;;0.00;;
47129;SDS011;69689;48.122;11.542;2023-05-07T17:53:57;0.00;;;0.00;;
47129;SDS011;69689;48.122;11.542;2023-05-07T17:56:23;0.00;;;0.00;;
47129;SDS011;69689;48.122;11.542;2023-05-07T17:58:48;0.00;;;0.00;;
47129;SDS011;69689;48.122;11.542;2023-05-07T18:01:13;0.00;;;0.00;;
47129;SDS011;69689;48.122;11.542;2023-05-07T18:03:39;0.00;;;0.00;;
47129;SDS011;69689;48.122;11.542;2023-05-07T18:06:04;0.00;;;0.00;;
47129;SDS011;69689;48.122;11.542;2023-05-07T18:08:30;0.00;;;0.00;;
47129;SDS011;69689;48.122;11.542;2023-05-07T18:10:55;0.00;;;0.00;;
47129;SDS011;69689;48.122;11.542;2023-05-07T18:13:20;0.00;;;0.00;;
47129;SDS011;69689;48.122;11.542;2023-05-07T18:15:46;0.00;;;0.00;;
47129;SDS011;69689;48.122;11.542;2023-05-07T18:18:12;0.00;;;0.00;;
47129;SDS011;69689;48.122;11.542;2023-05-07T18:20:38;0.00;;;0.00;;
47129;SDS011;69689;48.122;11.542;2023-05-07T18:23:03;0.00;;;0.00;;
47129;SDS011;69689;48.122;11.542;2023-05-07T18:25:29;0.00;;;0.00;;
47129;SDS011;69689;48.122;11.542;2023-05-07T18:27:54;0.00;;;0.00;;
47129;SDS011;69689;48.122;11.542;2023-05-07T18:30:20;0.00;;;0.00;;
47129;SDS011;69689;48.122;11.542;2023-05-07T18:32:46;0.00;;;0.00;;
47129;SDS011;69689;48.122;11.542;2023-05-07T18:35:11;0.00;;;0.00;;
47129;SDS011;69689;48.122;11.542;2023-05-07T18:37:37;0.00;;;0.00;;
47129;SDS011;69689;48.122;11.542;2023-05-07T18:40:02;0.00;;;0.00;;
47129;SDS011;69689;48.122;11.542;2023-05-07T18:42:29;0.00;;;0.00;;
47129;SDS011;69689;48.122;11.542;2023-05-07T18:44:55;0.00;;;0.00;;
47129;SDS011;69689;48.122;11.542;2023-05-07T18:47:20;0.00;;;0.00;;
47129;SDS011;69689;48.122;11.542;2023-05-07T18:49:45;0.00;;;0.00;;
47129;SDS011;69689;48.122;11.542;2023-05-07T18:52:10;0.00;;;0.00;;
47129;SDS011;69689;48.122;11.542;2023-05-07T18:54:36;0.00;;;0.00;;
47129;SDS011;69689;48.122;11.542;2023-05-07T18:57:01;0.00;;;0.00;;
